Etusivu
METAR-TAF:

METAR-TAF

Lentoasemat :

Olivia Regional Airport

Olivia, Minnesota, Yhdysvallat

Leveyspiiri: 44-46-43N, Pituuspiiri: 095-01-58W, korkeus merenpinnasta: 328 m

Tämänhetkinen sää

Tämä raportti tehtiin 17 minuuttia sitten, kello 12.35 UTC
Tuuli 3 kn kaakosta
Lämpötila 14°C
Kosteus 82%
Ilmanpaine 1017 hPa
Näkyvyys: 16.1 km
selkeää

METAR: KOVL 051235Z AUTO 14003KT 10SM CLR 14/11 A3004 RMK AO2

Aika: 07:52 (12:52 UTC)


TAF: puuttuu

Säähavainnot ja -ennusteet yli 4000 lentoasemalta (METAR- ja TAF-raportit).

Käytössä olevat sääasemat on merkitty karttaan keltaisilla ja punaisilla pisteillä.

Aseta hiiri pisteen päälle nähdäksesi sääaseman nimen.

Klikkaa sitten nähdäksesi säähavainnot ja -ennusteet.

Kartan vaihtaminen: klikkaa mustalla rastilla varustettuja vihreitä pisteitä, niin voit zoomata sisään; viivalla varustettua vihreää pistettä, niin voit zoomata ulos tai vihreitä nuolia, niin pääset viereisille kartoille.


METAR-TAF: